Time;durP1;ratioP1;P1;durP2;ratioP2;P2;SDS_P1;SDS_P2;PMS_P1;PMS_P2;Temp;Humidity;BMP_temperature;BMP_pressure;BME280_temperature;BME280_humidity;BME280_pressure;Samples;Min_cycle;Max_cycle;Signal;HPM_P1;HPM_P2
2023/01/06 00:03:02;;;;;;;25.60;14.03;;;;;;;;;;10448378;28;20868;-61
2023/01/06 00:08:02;;;;;;;25.92;12.32;;;;;;;;;;10448777;28;20477;-60
2023/01/06 00:13:02;;;;;;;26.87;12.10;;;;;;;;;;10447578;28;20200;-62
2023/01/06 00:18:02;;;;;;;20.47;11.43;;;;;;;;;;10448617;28;20449;-60
2023/01/06 00:23:03;;;;;;;21.60;12.80;;;;;;;;;;10447700;28;20231;-62
2023/01/06 00:28:03;;;;;;;24.10;13.37;;;;;;;;;;10448565;28;20596;-61
2023/01/06 00:33:03;;;;;;;24.23;13.07;;;;;;;;;;10447981;28;20693;-61
2023/01/06 00:38:04;;;;;;;30.53;14.43;;;;;;;;;;10430544;28;20202;-61
2023/01/06 00:43:04;;;;;;;21.07;11.93;;;;;;;;;;10448059;28;20207;-59
2023/01/06 00:48:04;;;;;;;22.53;12.07;;;;;;;;;;10447588;28;20220;-58
2023/01/06 00:53:05;;;;;;;20.37;13.47;;;;;;;;;;10429378;28;20302;-61
2023/01/06 00:58:05;;;;;;;26.93;13.37;;;;;;;;;;10428867;28;20441;-59
2023/01/06 01:03:05;;;;;;;37.07;14.43;;;;;;;;;;10446652;28;20230;-58
2023/01/06 01:08:05;;;;;;;25.90;15.00;;;;;;;;;;10429562;28;20215;-59
2023/01/06 01:13:05;;;;;;;28.07;14.03;;;;;;;;;;10446804;28;20196;-59
2023/01/06 01:18:05;;;;;;;20.63;12.53;;;;;;;;;;10428685;28;20202;-58
2023/01/06 01:23:06;;;;;;;26.83;12.93;;;;;;;;;;10439797;28;20685;-59
2023/01/06 01:28:06;;;;;;;25.30;12.53;;;;;;;;;;10454428;28;20223;-61
2023/01/06 01:33:06;;;;;;;28.67;12.93;;;;;;;;;;10434274;28;20227;-59
2023/01/06 01:38:06;;;;;;;26.43;12.40;;;;;;;;;;10454997;28;20235;-59
2023/01/06 01:43:08;;;;;;;29.10;9.83;;;;;;;;;;10453576;28;20208;-59
2023/01/06 01:48:23;;;;;;;26.63;10.07;;;;;;;;;;10453753;28;20829;-60
2023/01/06 01:53:28;;;;;;;25.93;11.13;;;;;;;;;;10453467;28;20204;-60
2023/01/06 01:58:33;;;;;;;27.73;10.73;;;;;;;;;;10434262;28;20224;-59
2023/01/06 02:03:33;;;;;;;30.73;10.63;;;;;;;;;;10451509;28;20208;-59
2023/01/06 02:08:38;;;;;;;27.60;9.07;;;;;;;;;;10434881;28;20223;-59
2023/01/06 02:13:40;;;;;;;21.27;9.77;;;;;;;;;;10452101;28;20200;-60
2023/01/06 02:18:46;;;;;;;20.23;8.67;;;;;;;;;;10434744;28;20188;-60
2023/01/06 02:23:54;;;;;;;23.97;8.63;;;;;;;;;;10451841;28;20232;-57
2023/01/06 02:29:10;;;;;;;26.50;8.57;;;;;;;;;;10433184;28;20575;-60
2023/01/06 02:34:16;;;;;;;20.63;7.77;;;;;;;;;;10451523;28;20223;-61
2023/01/06 02:39:16;;;;;;;20.27;6.67;;;;;;;;;;10433339;28;20731;-61
2023/01/06 02:44:26;;;;;;;18.87;6.90;;;;;;;;;;10450567;28;20208;-60
2023/01/06 02:49:42;;;;;;;20.80;7.27;;;;;;;;;;10433935;28;20208;-60
2023/01/06 02:54:52;;;;;;;18.70;7.00;;;;;;;;;;10432804;28;20199;-60
2023/01/06 02:59:57;;;;;;;20.73;7.40;;;;;;;;;;10432811;28;20184;-60
2023/01/06 03:05:00;;;;;;;17.10;6.47;;;;;;;;;;10333713;23;20744;-64
2023/01/06 03:10:02;;;;;;;16.30;6.43;;;;;;;;;;10303062;28;20186;-65
2023/01/06 03:15:03;;;;;;;23.20;6.83;;;;;;;;;;10278128;28;20207;-62
2023/01/06 03:20:04;;;;;;;25.17;5.70;;;;;;;;;;10262485;28;20188;-65
2023/01/06 03:25:07;;;;;;;20.67;6.43;;;;;;;;;;10245431;29;20203;-63
2023/01/06 03:30:09;;;;;;;18.20;5.23;;;;;;;;;;10261653;28;20277;-64
2023/01/06 03:35:30;;;;;;;20.57;5.17;;;;;;;;;;10261371;28;20207;-63
2023/01/06 03:40:32;;;;;;;23.87;5.70;;;;;;;;;;10246886;28;20183;-65
2023/01/06 03:45:37;;;;;;;19.47;6.00;;;;;;;;;;10261026;28;20211;-65
2023/01/06 03:50:44;;;;;;;21.67;6.40;;;;;;;;;;10260699;28;20191;-65
2023/01/06 03:55:48;;;;;;;25.10;7.00;;;;;;;;;;10245059;28;20241;-62
2023/01/06 04:00:49;;;;;;;14.70;4.63;;;;;;;;;;10261179;28;20243;-64
2023/01/06 04:05:50;;;;;;;21.17;4.67;;;;;;;;;;10285955;28;20218;-65
2023/01/06 04:10:51;;;;;;;17.37;4.50;;;;;;;;;;10275988;28;20229;-65
2023/01/06 04:15:51;;;;;;;18.60;5.00;;;;;;;;;;10308910;28;20212;-65
2023/01/06 04:20:51;;;;;;;16.07;4.80;;;;;;;;;;10278009;28;20218;-65
2023/01/06 04:25:57;;;;;;;19.77;4.67;;;;;;;;;;10309381;28;20221;-66
2023/01/06 04:31:07;;;;;;;11.27;4.63;;;;;;;;;;10276094;28;20222;-66
2023/01/06 04:36:08;;;;;;;13.87;5.10;;;;;;;;;;10276999;28;20194;-65
2023/01/06 04:41:10;;;;;;;14.90;6.23;;;;;;;;;;10276751;28;20230;-66
2023/01/06 04:46:10;;;;;;;16.30;4.97;;;;;;;;;;10278036;28;20241;-65
2023/01/06 04:51:10;;;;;;;43.70;14.97;;;;;;;;;;10278933;28;20477;-66
2023/01/06 04:56:11;;;;;;;23.27;5.40;;;;;;;;;;10276460;28;20201;-65
2023/01/06 05:01:12;;;;;;;18.63;5.63;;;;;;;;;;10284050;28;20238;-64
2023/01/06 05:06:14;;;;;;;9.90;4.77;;;;;;;;;;10292322;28;20233;-65
2023/01/06 05:11:16;;;;;;;19.67;8.40;;;;;;;;;;10292687;28;20211;-65
2023/01/06 05:16:22;;;;;;;31.93;13.33;;;;;;;;;;10292408;28;20205;-65
2023/01/06 05:21:26;;;;;;;37.00;17.70;;;;;;;;;;10291975;28;20246;-65
2023/01/06 05:26:27;;;;;;;119.37;46.20;;;;;;;;;;10291768;28;20230;-65
2023/01/06 05:31:27;;;;;;;18.97;9.63;;;;;;;;;;10291963;28;20230;-64
2023/01/06 05:36:27;;;;;;;24.43;12.00;;;;;;;;;;10291443;28;20685;-64
2023/01/06 05:41:27;;;;;;;11.77;5.47;;;;;;;;;;10291488;28;20581;-63
2023/01/06 05:46:27;;;;;;;56.63;25.53;;;;;;;;;;10290856;28;20222;-65
2023/01/06 05:51:28;;;;;;;71.33;30.00;;;;;;;;;;10291009;28;20265;-64
2023/01/06 05:56:28;;;;;;;20.03;10.13;;;;;;;;;;10290397;28;20202;-64
2023/01/06 06:01:30;;;;;;;21.67;11.37;;;;;;;;;;10290744;28;20235;-63
2023/01/06 06:06:30;;;;;;;14.03;7.00;;;;;;;;;;10290206;28;20220;-65
2023/01/06 06:11:30;;;;;;;9.37;4.90;;;;;;;;;;10289121;28;20213;-62
2023/01/06 06:16:30;;;;;;;5.23;2.70;;;;;;;;;;10290315;28;20202;-65
2023/01/06 06:21:30;;;;;;;10.43;4.13;;;;;;;;;;10289761;28;20223;-64
2023/01/06 06:26:31;;;;;;;4.80;2.40;;;;;;;;;;10289237;28;20225;-62
2023/01/06 06:31:31;;;;;;;6.57;4.00;;;;;;;;;;10290083;28;20602;-64
2023/01/06 06:36:31;;;;;;;1.70;1.60;;;;;;;;;;10288438;28;20195;-63
2023/01/06 06:41:32;;;;;;;5.37;1.97;;;;;;;;;;10289962;28;20217;-64
2023/01/06 06:46:32;;;;;;;2.27;1.30;;;;;;;;;;10288379;28;20713;-64
2023/01/06 06:51:32;;;;;;;2.00;1.37;;;;;;;;;;10288627;28;20245;-63
2023/01/06 06:56:32;;;;;;;4.57;1.20;;;;;;;;;;10288495;28;20240;-64
2023/01/06 07:01:32;;;;;;;1.60;1.20;;;;;;;;;;10288402;28;21018;-64
2023/01/06 07:06:33;;;;;;;1.90;1.20;;;;;;;;;;10287486;28;20218;-63
2023/01/06 07:11:33;;;;;;;1.70;1.10;;;;;;;;;;10277491;28;20354;-63
2023/01/06 07:16:33;;;;;;;0.90;0.90;;;;;;;;;;10286599;28;20195;-61
2023/01/06 07:21:33;;;;;;;1.53;1.00;;;;;;;;;;10286893;28;20705;-64
2023/01/06 07:26:34;;;;;;;2.13;1.50;;;;;;;;;;10287474;28;20582;-62
2023/01/06 07:31:34;;;;;;;1.17;1.07;;;;;;;;;;10287153;28;20213;-61
2023/01/06 07:36:34;;;;;;;1.37;1.27;;;;;;;;;;10286820;28;20191;-64
2023/01/06 07:41:34;;;;;;;1.70;1.60;;;;;;;;;;10287085;28;20767;-62
2023/01/06 07:46:35;;;;;;;1.60;1.50;;;;;;;;;;10286220;28;20229;-64
2023/01/06 07:51:35;;;;;;;3.53;1.97;;;;;;;;;;10286663;28;20301;-59
2023/01/06 07:56:35;;;;;;;3.63;3.37;;;;;;;;;;10278089;28;20194;-62
2023/01/06 08:01:35;;;;;;;3.40;2.97;;;;;;;;;;10293326;28;20709;-61
2023/01/06 08:06:38;;;;;;;1.40;1.30;;;;;;;;;;10280454;28;20496;-62
2023/01/06 08:11:38;;;;;;;5.70;3.70;;;;;;;;;;10280940;28;20219;-65
2023/01/06 08:16:38;;;;;;;3.37;2.77;;;;;;;;;;10251853;28;20203;-63
2023/01/06 08:21:39;;;;;;;5.33;4.83;;;;;;;;;;10276509;28;20214;-64
2023/01/06 08:26:39;;;;;;;1.93;1.40;;;;;;;;;;10256959;28;20696;-64
2023/01/06 08:31:39;;;;;;;1.47;1.37;;;;;;;;;;10265993;28;20277;-63
2023/01/06 08:36:40;;;;;;;1.40;1.30;;;;;;;;;;10286867;28;20198;-63
2023/01/06 08:41:40;;;;;;;1.40;1.30;;;;;;;;;;10289206;28;20221;-64
2023/01/06 08:46:41;;;;;;;4.77;1.60;;;;;;;;;;10290985;28;20226;-63
2023/01/06 08:51:41;;;;;;;3.60;2.03;;;;;;;;;;10288850;28;20228;-61
2023/01/06 08:56:44;;;;;;;1.90;1.70;;;;;;;;;;10289228;28;20198;-62
2023/01/06 09:01:44;;;;;;;2.43;1.67;;;;;;;;;;10288410;28;20336;-62
2023/01/06 09:06:48;;;;;;;2.17;1.43;;;;;;;;;;10310776;23;20301;31
2023/01/06 09:11:48;;;;;;;2.27;1.50;;;;;;;;;;10364747;28;20228;-60
2023/01/06 09:16:48;;;;;;;1.00;0.97;;;;;;;;;;10368705;28;20204;-62
2023/01/06 09:21:48;;;;;;;2.20;1.70;;;;;;;;;;10370040;28;20216;-60
2023/01/06 09:26:48;;;;;;;2.97;2.27;;;;;;;;;;10370149;28;20228;-61
2023/01/06 09:31:48;;;;;;;1.40;1.20;;;;;;;;;;10370194;28;20268;-63
2023/01/06 09:36:49;;;;;;;1.00;1.00;;;;;;;;;;10369018;28;20204;-63
2023/01/06 09:42:00;;;;;;;5.57;4.17;;;;;;;;;;10371859;28;20196;-62
2023/01/06 09:47:01;;;;;;;1.40;1.17;;;;;;;;;;10365053;28;20698;-63
2023/01/06 09:52:03;;;;;;;1.40;1.30;;;;;;;;;;10362324;28;20696;-65
2023/01/06 09:57:05;;;;;;;0.90;0.90;;;;;;;;;;10362098;28;20687;-64
2023/01/06 10:02:10;;;;;;;1.07;1.00;;;;;;;;;;10362272;28;20198;-64
2023/01/06 10:07:19;;;;;;;0.60;0.60;;;;;;;;;;10362664;28;20647;-64
2023/01/06 10:12:25;;;;;;;0.73;0.73;;;;;;;;;;10359323;28;20199;-63
2023/01/06 10:17:44;;;;;;;0.60;0.60;;;;;;;;;;10360370;28;20232;-63
2023/01/06 10:23:01;;;;;;;0.57;0.57;;;;;;;;;;10362286;28;20725;-63
2023/01/06 10:28:16;;;;;;;0.53;0.53;;;;;;;;;;10361384;28;20221;-63
2023/01/06 10:33:24;;;;;;;0.50;0.50;;;;;;;;;;10360594;28;20566;-63
2023/01/06 10:38:36;;;;;;;0.70;0.70;;;;;;;;;;10362706;28;20308;-62
2023/01/06 10:43:36;;;;;;;0.80;0.60;;;;;;;;;;10360489;28;20281;-63
2023/01/06 10:48:37;;;;;;;0.60;0.60;;;;;;;;;;10360157;28;20240;-63
2023/01/06 10:53:37;;;;;;;1.40;1.30;;;;;;;;;;10360850;28;20308;-64
2023/01/06 10:58:42;;;;;;;0.93;0.90;;;;;;;;;;10360347;28;20213;-64
2023/01/06 11:03:44;;;;;;;0.80;0.80;;;;;;;;;;10362254;28;20299;-63
2023/01/06 11:08:44;;;;;;;0.80;0.80;;;;;;;;;;10360144;28;20787;-62
2023/01/06 11:13:49;;;;;;;2.20;0.70;;;;;;;;;;10359813;28;20198;-63
2023/01/06 11:18:56;;;;;;;1.00;0.70;;;;;;;;;;10359196;28;20225;-64
2023/01/06 11:24:07;;;;;;;1.00;0.90;;;;;;;;;;10359821;28;20217;-64
2023/01/06 11:29:16;;;;;;;0.80;0.80;;;;;;;;;;10360674;28;20308;-64
2023/01/06 11:34:19;;;;;;;0.60;0.60;;;;;;;;;;10360978;28;20189;-64
2023/01/06 11:39:20;;;;;;;1.43;0.90;;;;;;;;;;10362330;28;20208;-64
2023/01/06 11:44:24;;;;;;;0.80;0.80;;;;;;;;;;10363681;28;20201;-62
2023/01/06 11:49:35;;;;;;;0.70;0.70;;;;;;;;;;10362945;28;20228;-64
2023/01/06 11:54:37;;;;;;;2.03;1.10;;;;;;;;;;10360899;28;20755;-63
2023/01/06 11:59:44;;;;;;;0.70;0.70;;;;;;;;;;10363144;28;20282;-63
2023/01/06 12:04:50;;;;;;;0.70;0.70;;;;;;;;;;10363515;28;20730;-63
2023/01/06 12:09:50;;;;;;;1.90;0.60;;;;;;;;;;10360548;28;20251;-64
2023/01/06 12:14:50;;;;;;;1.00;0.80;;;;;;;;;;10363092;28;20204;-64
2023/01/06 12:19:51;;;;;;;1.17;0.80;;;;;;;;;;10361894;28;20630;-64
2023/01/06 12:24:54;;;;;;;3.17;2.17;;;;;;;;;;10360647;28;20672;-64
2023/01/06 12:29:57;;;;;;;1.10;0.90;;;;;;;;;;10362231;28;20232;-63
2023/01/06 12:34:59;;;;;;;1.87;1.30;;;;;;;;;;10361330;28;20194;-62
2023/01/06 12:40:18;;;;;;;1.83;1.30;;;;;;;;;;10361146;28;20221;-63
2023/01/06 12:45:41;;;;;;;1.10;1.00;;;;;;;;;;10359447;28;20251;-64
2023/01/06 12:50:45;;;;;;;0.90;0.90;;;;;;;;;;10360790;28;20308;-64
2023/01/06 12:56:04;;;;;;;1.17;1.00;;;;;;;;;;10358812;28;20213;-62
2023/01/06 13:01:07;;;;;;;2.83;1.00;;;;;;;;;;10360663;28;20209;-63
2023/01/06 13:06:23;;;;;;;0.80;0.80;;;;;;;;;;10360089;28;20252;-62
2023/01/06 13:11:29;;;;;;;1.93;0.80;;;;;;;;;;10359849;28;21186;-63
2023/01/06 13:16:49;;;;;;;1.87;1.60;;;;;;;;;;10359502;28;20189;-62
2023/01/06 13:21:52;;;;;;;2.50;1.80;;;;;;;;;;10363974;28;20213;-63
2023/01/06 13:27:10;;;;;;;1.70;1.00;;;;;;;;;;10366793;28;20271;-66
2023/01/06 13:32:29;;;;;;;1.30;0.93;;;;;;;;;;10366636;28;20189;-63
2023/01/06 13:37:34;;;;;;;1.20;1.10;;;;;;;;;;10367580;28;20269;-62
2023/01/06 13:42:43;;;;;;;2.53;1.37;;;;;;;;;;10368270;28;20560;-61
2023/01/06 13:47:44;;;;;;;2.70;2.10;;;;;;;;;;10366623;28;20233;-62
2023/01/06 13:52:45;;;;;;;1.60;1.50;;;;;;;;;;10365591;28;20691;-62
2023/01/06 13:57:45;;;;;;;3.13;1.37;;;;;;;;;;10366927;28;20220;-66
2023/01/06 14:02:57;;;;;;;1.67;1.30;;;;;;;;;;10365144;28;20571;-62
2023/01/06 14:07:59;;;;;;;1.37;1.27;;;;;;;;;;10364964;28;20233;-60
2023/01/06 14:13:00;;;;;;;4.77;3.20;;;;;;;;;;10366437;28;20579;-63
2023/01/06 14:18:01;;;;;;;3.00;1.10;;;;;;;;;;10364054;28;20217;-60
2023/01/06 14:23:16;;;;;;;1.37;1.10;;;;;;;;;;10365081;28;20654;-64
2023/01/06 14:28:19;;;;;;;0.80;0.80;;;;;;;;;;10365568;28;20224;-63
2023/01/06 14:33:38;;;;;;;0.87;0.83;;;;;;;;;;10362667;28;20237;-63
2023/01/06 14:38:45;;;;;;;1.50;0.70;;;;;;;;;;10364813;28;20217;-61
2023/01/06 14:43:50;;;;;;;0.97;0.70;;;;;;;;;;10364012;28;20192;-64
2023/01/06 14:48:56;;;;;;;3.73;1.87;;;;;;;;;;10362073;28;20755;-64
2023/01/06 14:53:58;;;;;;;1.47;1.00;;;;;;;;;;10360915;28;20280;-64
2023/01/06 14:59:10;;;;;;;1.47;0.70;;;;;;;;;;10365419;28;20216;-63
2023/01/06 15:04:21;;;;;;;1.80;1.03;;;;;;;;;;10363600;28;20280;-63
2023/01/06 15:09:22;;;;;;;2.10;1.37;;;;;;;;;;10364778;28;20292;-64
2023/01/06 15:14:23;;;;;;;80.53;37.13;;;;;;;;;;10361995;28;20327;-63
2023/01/06 15:19:24;;;;;;;2.10;1.67;;;;;;;;;;10361814;28;20667;-60
2023/01/06 15:24:26;;;;;;;1.07;1.07;;;;;;;;;;10361322;28;20197;-64
2023/01/06 15:29:26;;;;;;;1.03;1.00;;;;;;;;;;10358492;28;20236;-63
2023/01/06 15:34:39;;;;;;;1.80;1.70;;;;;;;;;;10360246;28;20192;-63
2023/01/06 15:39:39;;;;;;;1.17;1.07;;;;;;;;;;10358446;28;20659;-62
2023/01/06 15:44:40;;;;;;;1.40;1.20;;;;;;;;;;10360454;28;20281;-62
2023/01/06 15:49:40;;;;;;;2.67;0.90;;;;;;;;;;10358574;28;20221;-59
2023/01/06 15:54:42;;;;;;;1.70;1.10;;;;;;;;;;10363319;28;20435;-62
2023/01/06 15:59:53;;;;;;;0.93;0.93;;;;;;;;;;10361556;28;20259;-63
2023/01/06 16:04:53;;;;;;;1.50;1.17;;;;;;;;;;10363252;28;20739;-64
2023/01/06 16:09:53;;;;;;;1.00;1.00;;;;;;;;;;10361223;28;20233;-64
2023/01/06 16:14:54;;;;;;;1.13;1.07;;;;;;;;;;10361700;28;20915;-63
2023/01/06 16:19:59;;;;;;;1.80;1.23;;;;;;;;;;10361855;28;20574;-65
2023/01/06 16:25:01;;;;;;;1.73;1.37;;;;;;;;;;10363153;28;20698;-61
2023/01/06 16:30:14;;;;;;;1.10;1.00;;;;;;;;;;10360878;28;20225;-63
2023/01/06 16:35:15;;;;;;;1.53;1.27;;;;;;;;;;10361661;28;20185;-61
2023/01/06 16:40:16;;;;;;;1.10;0.97;;;;;;;;;;10361695;28;20706;-62
2023/01/06 16:45:32;;;;;;;1.17;1.07;;;;;;;;;;10360813;28;20192;-62
2023/01/06 16:50:37;;;;;;;2.00;1.10;;;;;;;;;;10361492;28;20299;-63
2023/01/06 16:55:38;;;;;;;2.10;1.83;;;;;;;;;;10363769;28;20240;-61
2023/01/06 17:00:38;;;;;;;1.20;1.10;;;;;;;;;;10370380;28;20574;-61
2023/01/06 17:05:40;;;;;;;2.20;1.87;;;;;;;;;;10368914;28;20280;-59
2023/01/06 17:10:40;;;;;;;5.30;2.27;;;;;;;;;;10369756;28;20231;-59
2023/01/06 17:15:41;;;;;;;7.13;2.70;;;;;;;;;;10365125;28;20671;-59
2023/01/06 17:20:41;;;;;;;2.13;1.40;;;;;;;;;;10367801;28;20217;-60
2023/01/06 17:25:42;;;;;;;4.17;2.23;;;;;;;;;;10366890;28;20486;-62
2023/01/06 17:30:42;;;;;;;5.57;2.17;;;;;;;;;;10372144;28;20209;-62
2023/01/06 17:35:44;;;;;;;5.77;3.70;;;;;;;;;;10372154;28;20193;-59
2023/01/06 17:40:44;;;;;;;3.93;2.00;;;;;;;;;;10372357;28;20213;-59
2023/01/06 17:45:44;;;;;;;3.03;1.67;;;;;;;;;;10372272;28;20196;-62
2023/01/06 17:50:52;;;;;;;4.00;2.93;;;;;;;;;;10369929;28;20209;-63
2023/01/06 17:55:53;;;;;;;1.60;1.47;;;;;;;;;;10370377;28;20197;-63
2023/01/06 18:00:53;;;;;;;1.40;1.30;;;;;;;;;;10370898;28;20267;-63
2023/01/06 18:05:57;;;;;;;1.70;1.33;;;;;;;;;;10369435;28;20213;-64
2023/01/06 18:11:12;;;;;;;3.27;1.20;;;;;;;;;;10369483;28;20225;-60
2023/01/06 18:16:24;;;;;;;2.70;1.60;;;;;;;;;;10367700;28;20219;-59
2023/01/06 18:21:24;;;;;;;3.17;2.10;;;;;;;;;;10366461;28;20372;-60
2023/01/06 18:26:29;;;;;;;33.00;15.90;;;;;;;;;;10366718;28;20296;-61
2023/01/06 18:31:32;;;;;;;13.77;7.40;;;;;;;;;;10366566;28;20592;-62
2023/01/06 18:36:32;;;;;;;15.93;6.20;;;;;;;;;;10366247;28;20270;-60
2023/01/06 18:41:32;;;;;;;2.97;1.33;;;;;;;;;;10368131;28;20210;-62
2023/01/06 18:46:33;;;;;;;2.93;2.07;;;;;;;;;;10367526;28;20205;-62
2023/01/06 18:51:33;;;;;;;2.67;1.10;;;;;;;;;;10367526;28;20232;-59
2023/01/06 18:56:33;;;;;;;5.20;2.87;;;;;;;;;;10367717;28;20189;-62
2023/01/06 19:01:44;;;;;;;2.87;2.00;;;;;;;;;;10368151;28;20463;-61
2023/01/06 19:06:46;;;;;;;6.83;3.80;;;;;;;;;;10368011;28;20217;-62
2023/01/06 19:11:54;;;;;;;1.30;1.20;;;;;;;;;;10366947;28;20608;-63
2023/01/06 19:16:55;;;;;;;1.80;1.30;;;;;;;;;;10367439;28;20215;-62
2023/01/06 19:22:00;;;;;;;1.10;1.00;;;;;;;;;;10366399;28;20194;-61
2023/01/06 19:27:00;;;;;;;1.40;1.27;;;;;;;;;;10363752;28;20221;-62
2023/01/06 19:32:04;;;;;;;1.97;1.47;;;;;;;;;;10367059;28;20193;-62
2023/01/06 19:37:11;;;;;;;1.73;1.37;;;;;;;;;;10366585;28;20221;-63
2023/01/06 19:42:16;;;;;;;1.27;1.17;;;;;;;;;;10366293;28;20401;-63
2023/01/06 19:47:23;;;;;;;1.50;1.40;;;;;;;;;;10366869;28;20300;-63
2023/01/06 19:52:26;;;;;;;2.43;1.10;;;;;;;;;;10365688;28;20201;-61
2023/01/06 19:57:30;;;;;;;4.10;2.37;;;;;;;;;;10366017;28;20212;-63
2023/01/06 20:02:33;;;;;;;4.00;3.60;;;;;;;;;;10366191;28;20252;-61
2023/01/06 20:07:34;;;;;;;2.60;1.40;;;;;;;;;;10365306;28;20260;-63
2023/01/06 20:12:34;;;;;;;2.17;1.33;;;;;;;;;;10365359;28;20607;-62
2023/01/06 20:17:34;;;;;;;1.50;1.10;;;;;;;;;;10366099;28;20242;-60
2023/01/06 20:22:34;;;;;;;2.67;1.50;;;;;;;;;;10364490;28;20204;-61
2023/01/06 20:27:34;;;;;;;1.80;1.30;;;;;;;;;;10365005;28;20826;-60
2023/01/06 20:32:34;;;;;;;2.20;1.30;;;;;;;;;;10364415;28;20660;-63
2023/01/06 20:37:35;;;;;;;4.73;1.50;;;;;;;;;;10364319;28;20201;-59
2023/01/06 20:42:35;;;;;;;1.67;1.57;;;;;;;;;;10364795;28;20204;-61
2023/01/06 20:47:35;;;;;;;1.50;1.40;;;;;;;;;;10364973;28;20229;-63
2023/01/06 20:52:35;;;;;;;1.73;1.47;;;;;;;;;;10363416;28;20231;-62
2023/01/06 20:57:35;;;;;;;1.37;1.10;;;;;;;;;;10364579;28;20250;-63
2023/01/06 21:02:36;;;;;;;1.30;1.20;;;;;;;;;;10363907;28;20193;-62
2023/01/06 21:07:36;;;;;;;2.00;1.50;;;;;;;;;;10363241;28;20750;-62
2023/01/06 21:12:36;;;;;;;1.40;1.30;;;;;;;;;;10426355;23;20254;-61
2023/01/06 21:17:36;;;;;;;1.73;1.63;;;;;;;;;;10445772;28;20705;-63
2023/01/06 21:22:36;;;;;;;2.67;2.30;;;;;;;;;;10445476;28;20214;-61
2023/01/06 21:27:37;;;;;;;2.90;2.50;;;;;;;;;;10445843;28;20219;-64
2023/01/06 21:32:37;;;;;;;2.13;1.80;;;;;;;;;;10445318;28;20310;-61
2023/01/06 21:37:37;;;;;;;15.77;6.50;;;;;;;;;;10442845;28;20196;-64
2023/01/06 21:47:56;;;;;;;14.47;5.47;;;;;;;;;;10430999;28;20243;-62
2023/01/06 21:52:56;;;;;;;8.30;3.40;;;;;;;;;;10434814;28;20298;-64
2023/01/06 21:57:56;;;;;;;5.87;3.10;;;;;;;;;;10453326;28;20188;-61
2023/01/06 22:02:56;;;;;;;10.27;4.40;;;;;;;;;;10453861;28;20565;-64
2023/01/06 22:07:57;;;;;;;15.00;6.03;;;;;;;;;;10453465;28;20219;-60
2023/01/06 22:12:58;;;;;;;13.20;6.03;;;;;;;;;;10453335;28;20318;-60
2023/01/06 22:17:58;;;;;;;3.40;1.80;;;;;;;;;;10449831;28;20245;-59
2023/01/06 22:23:01;;;;;;;5.53;2.63;;;;;;;;;;10452729;28;20195;-61
2023/01/06 22:28:02;;;;;;;7.03;3.37;;;;;;;;;;10453263;28;20621;-62
2023/01/06 22:33:03;;;;;;;9.00;4.50;;;;;;;;;;10451736;28;20215;-63
2023/01/06 22:38:03;;;;;;;2.70;2.30;;;;;;;;;;10452634;28;20188;-64
2023/01/06 22:43:04;;;;;;;5.70;3.63;;;;;;;;;;10451462;28;20204;-64
2023/01/06 22:48:04;;;;;;;2.70;1.83;;;;;;;;;;10452129;28;20281;-64
2023/01/06 22:53:04;;;;;;;3.13;2.50;;;;;;;;;;10450630;28;20572;-64
2023/01/06 22:58:05;;;;;;;4.47;3.27;;;;;;;;;;10451768;28;20187;-64
2023/01/06 23:03:06;;;;;;;3.53;1.77;;;;;;;;;;10450888;28;20215;-63
2023/01/06 23:08:06;;;;;;;2.10;1.87;;;;;;;;;;10450809;28;20227;-64
2023/01/06 23:13:06;;;;;;;1.93;1.60;;;;;;;;;;10450973;28;20331;-64
2023/01/06 23:18:06;;;;;;;1.50;1.40;;;;;;;;;;10450510;28;20734;-63
2023/01/06 23:23:06;;;;;;;3.40;1.60;;;;;;;;;;10450535;28;20293;-64
2023/01/06 23:28:07;;;;;;;1.87;1.70;;;;;;;;;;10450245;28;20744;-64
2023/01/06 23:33:07;;;;;;;1.23;1.13;;;;;;;;;;10449874;28;20539;-64
2023/01/06 23:38:07;;;;;;;2.33;1.40;;;;;;;;;;10450203;28;20638;-62
2023/01/06 23:43:07;;;;;;;1.37;1.27;;;;;;;;;;10449343;28;20220;-63
2023/01/06 23:48:07;;;;;;;1.50;1.40;;;;;;;;;;10449569;28;20223;-64
2023/01/06 23:53:07;;;;;;;1.60;1.50;;;;;;;;;;10449296;28;20219;-64
2023/01/06 23:58:08;;;;;;;1.57;1.47;;;;;;;;;;10449412;28;20192;-64
